createdAt,value
2018-02-23T00:02:02.769Z,1.87
2018-02-23T00:04:31.202Z,1.80
2018-02-23T00:07:00.160Z,1.84
2018-02-23T00:09:28.573Z,1.84
2018-02-23T00:11:57.012Z,1.81
2018-02-23T00:14:25.517Z,1.86
2018-02-23T00:16:54.098Z,1.76
2018-02-23T00:19:22.554Z,1.79
2018-02-23T00:21:51.606Z,1.74
2018-02-23T00:24:20.051Z,1.82
2018-02-23T00:26:49.327Z,1.67
2018-02-23T00:29:17.859Z,1.65
2018-02-23T00:31:46.355Z,1.54
2018-02-23T00:34:14.801Z,1.65
2018-02-23T00:36:43.338Z,1.65
2018-02-23T00:39:12.036Z,1.78
2018-02-23T00:41:40.520Z,1.80
2018-02-23T00:44:09.744Z,1.89
2018-02-23T00:46:38.222Z,1.75
2018-02-23T00:49:06.778Z,1.79
2018-02-23T00:51:35.470Z,1.76
2018-02-23T00:54:03.913Z,1.77
2018-02-23T00:56:33.064Z,1.75
2018-02-23T00:59:01.583Z,1.71
2018-02-23T01:01:30.133Z,1.64
2018-02-23T01:03:58.552Z,1.53
2018-02-23T01:06:28.671Z,1.61
2018-02-23T01:08:57.162Z,1.41
2018-02-23T01:11:25.648Z,1.40
2018-02-23T01:13:55.168Z,1.36
2018-02-23T01:16:23.600Z,1.40
2018-02-23T01:18:52.130Z,1.30
2018-02-23T01:21:20.735Z,1.38
2018-02-23T01:23:49.174Z,1.27
2018-02-23T01:26:17.625Z,1.24
2018-02-23T01:28:46.524Z,1.29
2018-02-23T01:31:14.976Z,1.29
2018-02-23T01:33:44.395Z,1.14
2018-02-23T01:36:13.061Z,1.17
2018-02-23T01:38:41.877Z,1.03
2018-02-23T01:41:10.356Z,1.12
2018-02-23T01:43:39.456Z,1.04
2018-02-23T01:46:07.939Z,1.04
2018-02-23T01:48:36.431Z,0.89
2018-02-23T01:51:05.677Z,0.96
2018-02-23T01:53:35.013Z,0.87
2018-02-23T01:56:04.431Z,0.92
2018-02-23T01:58:33.196Z,0.92
2018-02-23T02:01:02.292Z,0.83
2018-02-23T02:03:30.746Z,0.77
2018-02-23T02:05:59.964Z,0.72
2018-02-23T02:08:28.409Z,0.70
2018-02-23T02:10:56.916Z,0.76
2018-02-23T02:13:25.404Z,0.60
2018-02-23T02:15:53.858Z,0.67
2018-02-23T02:18:22.311Z,0.61
2018-02-23T02:20:50.823Z,0.56
2018-02-23T02:23:19.328Z,0.63
2018-02-23T02:25:48.693Z,0.63
2018-02-23T02:28:17.211Z,0.50
2018-02-23T02:30:45.684Z,0.55
2018-02-23T02:33:14.921Z,0.54
2018-02-23T02:35:44.470Z,0.55
2018-02-23T02:38:12.905Z,0.64
2018-02-23T02:40:41.361Z,0.70
2018-02-23T02:43:09.948Z,0.65
2018-02-23T02:45:38.938Z,0.54
2018-02-23T02:48:07.419Z,0.49
2018-02-23T02:50:35.976Z,0.43
2018-02-23T02:53:04.603Z,0.42
2018-02-23T02:55:35.036Z,0.53
2018-02-23T02:58:03.498Z,0.43
2018-02-23T03:00:32.338Z,0.50
2018-02-23T03:03:00.751Z,0.52
2018-02-23T03:05:29.224Z,0.47
2018-02-23T03:07:58.641Z,0.29
2018-02-23T03:10:27.226Z,0.35
2018-02-23T03:12:55.794Z,0.55
2018-02-23T03:15:24.217Z,0.52
2018-02-23T03:17:52.646Z,0.61
2018-02-23T03:20:22.117Z,0.35
2018-02-23T03:22:50.589Z,0.31
2018-02-23T03:25:19.031Z,0.32
2018-02-23T03:27:47.660Z,0.24
2018-02-23T03:30:16.212Z,0.39
2018-02-23T03:32:44.682Z,0.18
2018-02-23T03:35:13.501Z,0.22
2018-02-23T03:37:43.026Z,0.30
2018-02-23T03:40:11.591Z,0.03
2018-02-23T03:42:40.696Z,-0.07
2018-02-23T03:45:09.577Z,-0.13
2018-02-23T03:47:38.130Z,-0.04
2018-02-23T03:50:08.350Z,-0.13
2018-02-23T03:52:36.833Z,-0.06
2018-02-23T03:55:05.323Z,-0.10
2018-02-23T03:57:34.360Z,-0.07
2018-02-23T04:00:02.948Z,-0.15
2018-02-23T04:02:31.377Z,-0.09
2018-02-23T04:04:59.857Z,-0.07
2018-02-23T04:07:28.433Z,-0.14
2018-02-23T04:09:56.860Z,-0.22
2018-02-23T04:12:25.380Z,-0.30
2018-02-23T04:14:53.880Z,-0.27
2018-02-23T04:17:22.282Z,-0.38
2018-02-23T04:19:51.529Z,-0.37
2018-02-23T04:22:20.984Z,-0.34
2018-02-23T04:24:49.590Z,-0.32
2018-02-23T04:27:18.907Z,-0.33
2018-02-23T04:29:47.335Z,-0.41
2018-02-23T04:32:15.860Z,-0.39
2018-02-23T04:34:47.061Z,-0.37
2018-02-23T04:37:15.697Z,-0.33
2018-02-23T04:39:44.172Z,-0.49
2018-02-23T04:42:12.718Z,-0.38
2018-02-23T04:44:41.198Z,-0.45
2018-02-23T04:47:09.646Z,-0.52
2018-02-23T04:49:38.537Z,-0.54
2018-02-23T04:52:06.943Z,-0.61
2018-02-23T04:54:35.464Z,-0.65
2018-02-23T04:57:04.491Z,-0.58
2018-02-23T04:59:32.949Z,-0.65
2018-02-23T05:02:01.377Z,-0.62
2018-02-23T05:04:30.381Z,-0.55
2018-02-23T05:06:58.818Z,-0.64
2018-02-23T05:09:27.262Z,-0.72
2018-02-23T05:11:55.883Z,-0.68
2018-02-23T05:14:24.320Z,-0.74
2018-02-23T05:16:52.765Z,-0.83
2018-02-23T05:19:21.226Z,-0.69
2018-02-23T05:21:49.773Z,-0.78
2018-02-23T05:24:18.209Z,-0.74
2018-02-23T05:26:46.767Z,-0.77
2018-02-23T05:29:15.436Z,-0.68
2018-02-23T05:31:43.939Z,-0.71
2018-02-23T05:34:12.533Z,-0.71
2018-02-23T05:36:40.982Z,-0.78
2018-02-23T05:39:09.609Z,-0.77
2018-02-23T05:41:38.225Z,-0.73
2018-02-23T05:44:06.758Z,-0.79
2018-02-23T05:46:36.382Z,-0.87
2018-02-23T05:49:05.870Z,-0.83
2018-02-23T05:51:35.691Z,-0.82
2018-02-23T05:54:04.482Z,-0.67
2018-02-23T05:56:33.491Z,-0.77
2018-02-23T05:59:01.953Z,-0.88
2018-02-23T06:01:30.419Z,-0.78
2018-02-23T06:03:59.695Z,-0.78
2018-02-23T06:06:28.156Z,-0.67
2018-02-23T06:08:56.642Z,-0.66
2018-02-23T06:11:25.099Z,-0.59
2018-02-23T06:13:53.580Z,-0.50
2018-02-23T06:16:28.600Z,-0.42
2018-02-23T06:18:59.187Z,-0.37
2018-02-23T06:21:27.809Z,-0.35
2018-02-23T06:23:56.410Z,-0.34
2018-02-23T06:26:24.878Z,-0.39
2018-02-23T06:28:53.314Z,-0.41
2018-02-23T06:31:21.812Z,-0.33
2018-02-23T06:33:50.298Z,-0.26
2018-02-23T06:36:18.701Z,-0.40
2018-02-23T06:38:47.328Z,-0.49
2018-02-23T06:41:16.019Z,-0.49
2018-02-23T06:43:44.432Z,-0.45
2018-02-23T06:46:14.185Z,-0.45
2018-02-23T06:48:42.793Z,-0.38
2018-02-23T06:51:11.320Z,-0.22
2018-02-23T06:53:40.633Z,-0.28
2018-02-23T06:56:09.195Z,-0.26
2018-02-23T06:58:37.729Z,-0.21
2018-02-23T07:01:06.265Z,-0.31
2018-02-23T07:03:35.196Z,-0.31
2018-02-23T07:06:03.615Z,-0.23
2018-02-23T07:08:32.161Z,-0.31
2018-02-23T07:11:00.613Z,-0.14
2018-02-23T07:13:29.054Z,-0.16
2018-02-23T07:15:57.642Z,-0.08
2018-02-23T07:18:26.116Z,-0.15
2018-02-23T07:20:54.610Z,-0.17
2018-02-23T07:23:23.402Z,-0.01
2018-02-23T07:25:51.982Z,0.07
2018-02-23T07:28:20.440Z,0.21
2018-02-23T07:30:49.096Z,0.28
2018-02-23T07:33:17.590Z,0.24
2018-02-23T07:35:46.035Z,0.13
2018-02-23T07:38:14.516Z,0.41
2018-02-23T07:40:42.963Z,0.59
2018-02-23T07:43:11.393Z,0.50
2018-02-23T07:45:40.167Z,0.53
2018-02-23T07:48:08.633Z,0.31
2018-02-23T07:50:37.349Z,0.37
2018-02-23T07:53:06.001Z,0.31
2018-02-23T07:55:34.573Z,0.47
2018-02-23T07:58:03.138Z,0.45
2018-02-23T08:00:31.702Z,0.51
2018-02-23T08:03:00.125Z,0.51
2018-02-23T08:05:28.567Z,0.66
2018-02-23T08:07:57.813Z,0.67
2018-02-23T08:10:26.247Z,0.63
2018-02-23T08:12:54.653Z,0.75
2018-02-23T08:15:23.251Z,0.67
2018-02-23T08:17:51.676Z,0.71
2018-02-23T08:20:20.187Z,0.68
2018-02-23T08:22:49.919Z,0.84
2018-02-23T08:25:18.380Z,0.85
2018-02-23T08:27:46.908Z,0.77
2018-02-23T08:30:15.498Z,0.82
2018-02-23T08:32:44.106Z,0.91
2018-02-23T08:35:12.529Z,1.09
2018-02-23T08:37:42.853Z,1.14
2018-02-23T08:40:11.313Z,1.10
2018-02-23T08:42:40.032Z,1.16
2018-02-23T08:45:09.476Z,1.45
2018-02-23T08:47:38.262Z,1.78
2018-02-23T08:50:06.820Z,1.81
2018-02-23T08:52:36.521Z,2.02
2018-02-23T08:55:05.088Z,2.25
2018-02-23T08:57:33.518Z,2.35
2018-02-23T09:00:02.623Z,2.59
2018-02-23T09:02:31.078Z,2.66
2018-02-23T09:04:59.498Z,2.07
2018-02-23T09:07:28.070Z,2.36
2018-02-23T09:09:56.546Z,3.12
2018-02-23T09:12:25.008Z,3.40
2018-02-23T09:14:53.517Z,3.14
2018-02-23T09:17:21.997Z,3.21
2018-02-23T09:19:50.547Z,3.60
2018-02-23T09:22:19.030Z,4.09
2018-02-23T09:24:47.453Z,4.40
2018-02-23T09:27:15.945Z,4.61
2018-02-23T09:29:44.434Z,5.25
2018-02-23T09:35:15.986Z,5.23
2018-02-23T09:37:44.469Z,4.71
2018-02-23T09:40:12.969Z,4.32
2018-02-23T09:42:41.501Z,3.90
2018-02-23T09:45:09.920Z,3.54
2018-02-23T09:47:38.524Z,3.12
2018-02-23T09:50:07.063Z,2.94
2018-02-23T09:52:35.543Z,3.18
2018-02-23T09:55:04.037Z,2.99
2018-02-23T09:57:33.004Z,3.67
2018-02-23T10:00:01.438Z,3.89
2018-02-23T10:02:29.986Z,4.01
2018-02-23T10:04:59.103Z,4.75
2018-02-23T10:07:27.528Z,4.84
2018-02-23T10:09:56.473Z,4.95
2018-02-23T10:12:24.945Z,4.40
2018-02-23T10:14:53.430Z,4.89
2018-02-23T10:17:21.865Z,5.90
2018-02-23T10:19:50.472Z,5.67
2018-02-23T10:22:19.110Z,4.85
2018-02-23T10:24:47.542Z,4.67
2018-02-23T10:27:16.126Z,4.00
2018-02-23T10:29:44.613Z,4.20
2018-02-23T10:32:13.056Z,4.33
2018-02-23T10:34:42.421Z,4.70
2018-02-23T10:37:10.969Z,4.04
2018-02-23T10:39:39.461Z,5.08
2018-02-23T10:42:08.108Z,5.50
2018-02-23T10:44:36.737Z,5.12
2018-02-23T10:47:05.653Z,4.88
2018-02-23T10:49:35.588Z,5.36
2018-02-23T10:52:04.063Z,5.72
2018-02-23T10:54:32.627Z,5.65
2018-02-23T10:57:01.142Z,5.55
2018-02-23T10:59:29.618Z,5.03
2018-02-23T11:01:58.168Z,5.37
2018-02-23T11:04:26.701Z,5.34
2018-02-23T11:06:55.141Z,5.89
2018-02-23T11:09:23.662Z,5.91
2018-02-23T11:11:58.270Z,6.65
2018-02-23T11:14:26.682Z,6.87
2018-02-23T11:16:55.113Z,5.56
2018-02-23T11:19:23.576Z,5.72
2018-02-23T11:21:52.710Z,5.62
2018-02-23T11:24:21.224Z,5.18
2018-02-23T11:26:50.650Z,4.66
2018-02-23T11:29:19.213Z,4.92
2018-02-23T11:31:48.582Z,4.59
2018-02-23T11:34:18.483Z,4.84
2018-02-23T11:36:46.898Z,4.84
2018-02-23T11:39:15.332Z,5.03
2018-02-23T11:41:43.803Z,5.34
2018-02-23T11:44:12.200Z,4.51
2018-02-23T11:46:40.693Z,4.13
2018-02-23T11:49:09.625Z,4.55
2018-02-23T11:51:38.069Z,4.95
2018-02-23T11:54:06.895Z,4.86
2018-02-23T11:56:35.810Z,4.92
2018-02-23T11:59:04.269Z,4.52
2018-02-23T12:01:32.773Z,4.61
2018-02-23T12:04:01.434Z,4.62
2018-02-23T12:06:29.938Z,3.14
2018-02-23T12:08:58.629Z,3.22
2018-02-23T12:11:28.055Z,3.01
2018-02-23T12:13:56.688Z,3.63
2018-02-23T12:16:26.103Z,4.07
2018-02-23T12:18:54.548Z,4.78
2018-02-23T12:21:23.024Z,5.30
2018-02-23T12:23:58.621Z,4.94
2018-02-23T12:26:27.133Z,4.39
2018-02-23T12:28:55.831Z,3.97
2018-02-23T12:31:24.442Z,4.22
2018-02-23T12:33:52.878Z,4.20
2018-02-23T12:36:21.292Z,3.77
2018-02-23T12:38:49.753Z,2.64
2018-02-23T12:41:18.156Z,2.48
2018-02-23T12:43:46.602Z,2.39
2018-02-23T12:46:15.069Z,2.53
2018-02-23T12:48:43.572Z,2.16
2018-02-23T12:51:12.108Z,2.47
2018-02-23T12:53:40.590Z,2.36
2018-02-23T12:56:09.480Z,2.05
2018-02-23T12:58:38.026Z,1.98
2018-02-23T13:01:07.492Z,1.70
2018-02-23T13:03:36.219Z,1.82
2018-02-23T13:06:05.014Z,1.86
2018-02-23T13:08:34.411Z,1.92
2018-02-23T13:11:02.908Z,2.18
2018-02-23T13:13:31.432Z,2.04
2018-02-23T13:16:00.813Z,2.07
2018-02-23T13:18:29.356Z,1.88
2018-02-23T13:20:57.994Z,1.89
2018-02-23T13:23:26.823Z,1.89
2018-02-23T13:25:55.311Z,2.06
2018-02-23T13:28:29.912Z,2.03
2018-02-23T13:30:58.373Z,1.79
2018-02-23T13:33:27.546Z,1.81
2018-02-23T13:35:56.262Z,1.82
2018-02-23T13:38:24.752Z,1.83
2018-02-23T13:40:59.025Z,1.83
2018-02-23T13:43:27.444Z,1.71
2018-02-23T13:45:55.927Z,1.77
2018-02-23T13:48:24.955Z,2.01
2018-02-23T13:50:54.142Z,2.10
2018-02-23T13:53:22.684Z,2.10
2018-02-23T13:55:51.215Z,1.88
2018-02-23T13:58:19.662Z,1.68
2018-02-23T14:00:48.165Z,1.69
2018-02-23T14:03:18.231Z,1.82
2018-02-23T14:05:46.663Z,1.80
2018-02-23T14:08:15.090Z,1.87
2018-02-23T14:10:45.003Z,1.93
2018-02-23T14:13:13.436Z,1.95
2018-02-23T14:15:41.916Z,2.08
2018-02-23T14:18:10.535Z,2.03
2018-02-23T14:20:38.962Z,1.91
2018-02-23T14:23:07.380Z,1.98
2018-02-23T14:25:35.887Z,1.91
2018-02-23T14:28:04.321Z,1.99
2018-02-23T14:30:32.784Z,1.74
2018-02-23T14:33:01.282Z,1.47
2018-02-23T14:35:29.695Z,1.53
2018-02-23T14:37:58.189Z,1.74
2018-02-23T14:40:26.675Z,1.83
2018-02-23T14:42:55.165Z,1.83
2018-02-23T14:45:23.619Z,1.75
2018-02-23T14:47:52.174Z,1.84
2018-02-23T14:50:32.692Z,1.88
2018-02-23T14:53:02.403Z,1.80
2018-02-23T14:55:31.034Z,1.75
2018-02-23T14:58:00.052Z,1.66
2018-02-23T15:00:29.784Z,1.68
2018-02-23T15:02:58.623Z,1.61
2018-02-23T15:05:27.183Z,1.56
2018-02-23T15:07:55.797Z,1.64
2018-02-23T15:10:24.236Z,1.52
2018-02-23T15:12:52.657Z,1.41
2018-02-23T15:15:21.662Z,1.55
2018-02-23T15:17:50.090Z,1.44
2018-02-23T15:20:18.531Z,1.56
2018-02-23T15:22:47.809Z,1.68
2018-02-23T15:25:16.250Z,1.71
2018-02-23T15:27:44.717Z,1.37
2018-02-23T15:30:25.326Z,1.38
2018-02-23T15:32:53.774Z,1.45
2018-02-23T15:35:22.226Z,1.47
2018-02-23T15:37:50.837Z,1.33
2018-02-23T15:40:19.312Z,1.24
2018-02-23T15:42:47.748Z,1.31
2018-02-23T15:45:16.287Z,1.23
2018-02-23T15:51:00.705Z,0.98
2018-02-23T15:53:29.500Z,1.02
2018-02-23T15:56:00.247Z,0.89
2018-02-23T15:58:35.626Z,0.89
2018-02-23T16:01:04.129Z,0.89
2018-02-23T16:03:32.744Z,0.97
2018-02-23T16:06:02.507Z,0.98
2018-02-23T16:08:31.411Z,0.97
2018-02-23T16:11:00.194Z,0.94
2018-02-23T16:13:28.849Z,0.83
2018-02-23T16:15:57.366Z,0.80
2018-02-23T16:18:25.885Z,0.76
2018-02-23T16:20:54.363Z,0.69
2018-02-23T16:23:22.799Z,0.66
2018-02-23T16:25:51.207Z,0.74
2018-02-23T16:28:19.657Z,0.73
2018-02-23T16:30:48.117Z,0.68
2018-02-23T16:33:16.561Z,0.58
2018-02-23T16:35:45.136Z,0.59
2018-02-23T16:38:13.857Z,0.55
2018-02-23T16:40:42.310Z,0.51
2018-02-23T16:43:11.738Z,0.52
2018-02-23T16:45:41.137Z,0.49
2018-02-23T16:48:09.570Z,0.52
2018-02-23T16:50:38.105Z,0.52
2018-02-23T16:53:06.835Z,0.41
2018-02-23T16:55:35.718Z,0.44
2018-02-23T16:58:04.206Z,0.38
2018-02-23T17:00:32.715Z,0.44
2018-02-23T17:03:01.266Z,0.37
2018-02-23T17:05:29.808Z,0.33
2018-02-23T17:07:58.441Z,0.27
2018-02-23T17:10:26.970Z,0.40
2018-02-23T17:12:55.973Z,0.40
2018-02-23T17:15:24.481Z,0.42
2018-02-23T17:17:52.937Z,0.35
2018-02-23T17:20:22.041Z,0.27
2018-02-23T17:22:50.473Z,0.28
2018-02-23T17:25:18.897Z,0.26
2018-02-23T17:27:47.847Z,0.16
2018-02-23T17:30:16.254Z,0.23
2018-02-23T17:32:44.719Z,0.11
2018-02-23T17:35:13.159Z,0.16
2018-02-23T17:37:41.652Z,0.22
2018-02-23T17:40:10.090Z,0.14
2018-02-23T17:42:38.704Z,0.22
2018-02-23T17:45:07.357Z,0.21
2018-02-23T17:47:35.883Z,0.16
2018-02-23T17:50:04.548Z,0.25
2018-02-23T17:52:33.173Z,0.21
2018-02-23T17:55:01.719Z,0.27
2018-02-23T17:57:30.444Z,0.20
2018-02-23T17:59:58.926Z,0.04
2018-02-23T18:02:28.261Z,0.07
2018-02-23T18:04:56.970Z,0.08
2018-02-23T18:07:25.534Z,0.11
2018-02-23T18:09:53.976Z,0.21
2018-02-23T18:12:22.759Z,0.13
2018-02-23T18:14:51.235Z,0.04
2018-02-23T18:17:19.649Z,0.07
2018-02-23T18:19:48.740Z,0.02
2018-02-23T18:22:17.190Z,-0.02
2018-02-23T18:24:45.630Z,0.05
2018-02-23T18:27:14.103Z,0.03
2018-02-23T18:29:42.556Z,-0.10
2018-02-23T18:32:10.972Z,-0.11
2018-02-23T18:34:40.042Z,-0.13
2018-02-23T18:37:08.466Z,-0.06
2018-02-23T18:39:37.031Z,-0.04
2018-02-23T18:42:06.505Z,-0.10
2018-02-23T18:44:35.190Z,-0.11
2018-02-23T18:47:03.920Z,-0.15
2018-02-23T18:49:32.755Z,-0.02
2018-02-23T18:52:01.304Z,-0.01
2018-02-23T18:54:29.943Z,-0.07
2018-02-23T18:56:58.675Z,-0.06
2018-02-23T18:59:27.486Z,-0.03
2018-02-23T19:01:55.955Z,-0.06
2018-02-23T19:04:24.481Z,0.04
2018-02-23T19:06:55.594Z,-0.02
2018-02-23T19:09:24.271Z,-0.13
2018-02-23T19:11:54.110Z,-0.11
2018-02-23T19:14:22.644Z,-0.08
2018-02-23T19:16:51.094Z,-0.05
2018-02-23T19:19:19.601Z,-0.09
2018-02-23T19:21:48.252Z,-0.09
2018-02-23T19:24:16.810Z,-0.11
2018-02-23T19:26:45.693Z,-0.20
2018-02-23T19:29:14.185Z,-0.18
2018-02-23T19:31:42.669Z,-0.21
2018-02-23T19:34:11.278Z,-0.23
2018-02-23T19:36:39.766Z,-0.18
2018-02-23T19:39:08.267Z,-0.10
2018-02-23T19:41:36.856Z,-0.15
2018-02-23T19:44:05.439Z,-0.05
2018-02-23T19:46:36.373Z,-0.21
2018-02-23T19:49:05.713Z,-0.14
2018-02-23T19:51:35.216Z,-0.22
2018-02-23T19:54:04.285Z,-0.17
2018-02-23T19:56:33.328Z,-0.29
2018-02-23T19:59:02.919Z,-0.21
2018-02-23T20:01:32.008Z,-0.24
2018-02-23T20:04:01.407Z,-0.28
2018-02-23T20:06:30.941Z,-0.23
2018-02-23T20:09:00.119Z,-0.13
2018-02-23T20:11:29.663Z,-0.14
2018-02-23T20:13:59.051Z,-0.09
2018-02-23T20:16:28.906Z,-0.21
2018-02-23T20:19:00.070Z,-0.21
2018-02-23T20:21:29.940Z,-0.25
2018-02-23T20:23:59.935Z,-0.26
2018-02-23T20:26:31.451Z,-0.19
2018-02-23T20:29:01.449Z,-0.21
2018-02-23T20:31:31.185Z,-0.17
2018-02-23T20:34:02.048Z,-0.13
2018-02-23T20:36:31.032Z,-0.12
2018-02-23T20:39:01.861Z,-0.14
2018-02-23T20:41:31.413Z,-0.09
2018-02-23T20:44:00.785Z,-0.11
2018-02-23T20:46:30.282Z,-0.01
2018-02-23T20:49:00.093Z,-0.07
2018-02-23T20:51:30.008Z,-0.09
2018-02-23T20:53:59.505Z,-0.22
2018-02-23T20:56:28.703Z,-0.10
2018-02-23T20:58:59.344Z,-0.22
2018-02-23T21:01:28.989Z,-0.26
2018-02-23T21:03:58.294Z,-0.22
2018-02-23T21:06:28.315Z,-0.14
2018-02-23T21:08:58.893Z,-0.16
2018-02-23T21:11:29.549Z,-0.08
2018-02-23T21:14:00.569Z,-0.18
2018-02-23T21:16:29.919Z,-0.19
2018-02-23T21:18:59.281Z,-0.20
2018-02-23T21:21:29.251Z,-0.22
2018-02-23T21:23:58.645Z,-0.15
2018-02-23T21:26:27.927Z,-0.28
2018-02-23T21:28:58.520Z,-0.24
2018-02-23T21:31:28.031Z,-0.14
2018-02-23T21:33:57.588Z,-0.09
2018-02-23T21:36:32.454Z,-0.12
2018-02-23T21:39:03.317Z,-0.12
2018-02-23T21:41:46.104Z,-0.13
2018-02-23T21:44:15.315Z,-0.07
2018-02-23T21:46:44.021Z,-0.12
2018-02-23T21:49:12.530Z,-0.17
2018-02-23T21:51:41.766Z,-0.23
2018-02-23T21:54:10.811Z,-0.23
2018-02-23T21:56:41.679Z,-0.22
2018-02-23T21:59:10.864Z,-0.27
2018-02-23T22:01:40.430Z,-0.18
2018-02-23T22:04:10.557Z,-0.21
2018-02-23T22:06:39.464Z,-0.04
2018-02-23T22:09:08.531Z,-0.10
2018-02-23T22:11:38.244Z,-0.06
2018-02-23T22:14:08.565Z,0.05
2018-02-23T22:16:37.774Z,0.13
2018-02-23T22:19:06.902Z,0.18
2018-02-23T22:21:36.065Z,0.18
2018-02-23T22:24:04.825Z,0.16
2018-02-23T22:26:33.749Z,0.29
2018-02-23T22:29:03.054Z,0.26
2018-02-23T22:31:32.718Z,0.30
2018-02-23T22:34:01.461Z,0.36
2018-02-23T22:36:31.154Z,0.23
2018-02-23T22:38:59.880Z,0.18
2018-02-23T22:41:28.859Z,0.24
2018-02-23T22:43:57.417Z,0.18
2018-02-23T22:46:25.848Z,0.32
2018-02-23T22:48:55.087Z,0.43
2018-02-23T22:51:23.615Z,0.48
2018-02-23T22:53:52.342Z,0.38
2018-02-23T22:56:20.907Z,0.45
2018-02-23T22:58:49.616Z,0.39
2018-02-23T23:01:18.045Z,0.48
2018-02-23T23:03:47.156Z,0.58
2018-02-23T23:06:16.111Z,0.71
2018-02-23T23:08:45.161Z,0.66
2018-02-23T23:11:14.456Z,0.82
2018-02-23T23:13:42.864Z,0.75
2018-02-23T23:16:11.296Z,0.86
2018-02-23T23:18:39.808Z,0.90
2018-02-23T23:21:08.230Z,0.87
2018-02-23T23:23:36.690Z,0.90
2018-02-23T23:26:05.307Z,0.94
2018-02-23T23:28:33.807Z,0.92
2018-02-23T23:31:02.356Z,1.02
2018-02-23T23:33:31.080Z,0.99
2018-02-23T23:35:59.593Z,1.01
2018-02-23T23:38:28.185Z,0.83
2018-02-23T23:40:58.153Z,0.86
2018-02-23T23:43:26.735Z,0.93
2018-02-23T23:45:55.231Z,0.92
2018-02-23T23:48:23.753Z,0.86
2018-02-23T23:50:52.274Z,0.82
2018-02-23T23:53:20.864Z,0.74
2018-02-23T23:55:49.379Z,0.83
2018-02-23T23:58:17.832Z,0.87
